Terminal Aerodrome Forecast
Issued by NWS Greer, SC

Home | Current Version | Previous Version | Text Only | Print | Product List | Glossary On
Versions: 1 2 3 4 5 6 7 8 9 10 11 12 13 14 15 16 17 18 19 20 21 22
000
FTUS42 KGSP 221738
TAFAVL
TAF
KAVL 221738Z 2218/2318 VRB04KT P6SM SCT045
     FM221900 19006KT P6SM VCTS SCT045CB
     FM222200 15004KT P6SM SCT040
     FM230000 VRB03KT P6SM FEW070 SCT200
     FM230500 00000KT 5SM BR FEW080
     FM231100 00000KT 1 1/2SM BR SCT003
     FM231300 VRB03KT P6SM FEW045 SCT200=

USA.gov is the U.S. government's official web portal to all federal, state and local government web resources and services.